Terminal Aerodrome Forecast
Issued by NWS

Current Version | Previous Version | Text Only | Print | Product List | Glossary On
Versions: 1 2 3 4 5 6 7 8 9 10 11 12
000
FTUS42 TJSJ 012347
TAFISX
TAF
TISX 012347Z 0200/0224 06009KT P6SM VCSH SCT025
     FM021300 11015G21KT P6SM VCSH SCT025 SCT035
     FM022300 09009KT P6SM FEW025 FEW040=

USA.gov is the U.S. government's official web portal to all federal, state and local government web resources and services.